createdAt,value
2023-05-22T00:00:23.801Z,8.57
2023-05-22T00:02:57.433Z,8.80
2023-05-22T00:05:31.068Z,7.93
2023-05-22T00:08:04.839Z,9.33
2023-05-22T00:10:38.877Z,8.60
2023-05-22T00:13:12.711Z,8.47
2023-05-22T00:15:45.959Z,9.13
2023-05-22T00:18:19.822Z,8.63
2023-05-22T00:20:53.419Z,8.00
2023-05-22T00:23:29.953Z,8.40
2023-05-22T00:26:03.549Z,8.53
2023-05-22T00:28:36.945Z,8.10
2023-05-22T00:31:11.877Z,8.67
2023-05-22T00:33:45.211Z,8.20
2023-05-22T00:36:19.238Z,8.23
2023-05-22T00:38:52.837Z,8.57
2023-05-22T00:41:26.476Z,9.27
2023-05-22T00:44:00.188Z,8.30
2023-05-22T00:46:33.852Z,8.50
2023-05-22T00:49:07.274Z,8.37
2023-05-22T00:51:40.588Z,8.30
2023-05-22T00:54:17.577Z,8.40
2023-05-22T00:56:51.950Z,8.17
2023-05-22T00:59:27.150Z,8.30
2023-05-22T01:02:02.863Z,7.87
2023-05-22T01:04:37.264Z,8.87
2023-05-22T01:07:10.392Z,7.90
2023-05-22T01:09:43.813Z,7.50
2023-05-22T01:12:32.144Z,8.27
2023-05-22T01:15:19.079Z,7.83
2023-05-22T01:18:11.158Z,7.87
2023-05-22T01:20:53.836Z,8.00
2023-05-22T01:24:01.624Z,7.97
2023-05-22T01:27:09.226Z,7.77
2023-05-22T01:30:04.801Z,7.60
2023-05-22T01:32:41.759Z,7.73
2023-05-22T01:35:19.676Z,8.00
2023-05-22T01:37:55.716Z,8.23
2023-05-22T01:40:30.111Z,7.87
2023-05-22T01:43:04.944Z,7.93
2023-05-22T01:45:39.066Z,7.50
2023-05-22T01:48:13.080Z,7.53
2023-05-22T01:50:48.990Z,7.67
2023-05-22T01:53:48.693Z,7.60
2023-05-22T01:56:34.750Z,7.60
2023-05-22T01:59:25.369Z,7.53
2023-05-22T02:02:04.390Z,7.73
2023-05-22T02:04:43.446Z,7.97
2023-05-22T02:07:22.110Z,7.97
2023-05-22T02:09:58.700Z,7.90
2023-05-22T02:12:32.655Z,7.27
2023-05-22T02:15:06.924Z,7.63
2023-05-22T02:17:45.404Z,7.57
2023-05-22T02:20:20.104Z,7.63
2023-05-22T02:22:53.584Z,7.90
2023-05-22T02:25:26.836Z,7.80
2023-05-22T02:28:00.201Z,7.60
2023-05-22T02:30:33.512Z,7.13
2023-05-22T02:33:09.309Z,7.70
2023-05-22T02:35:42.402Z,7.67
2023-05-22T02:38:15.858Z,7.97
2023-05-22T02:40:49.722Z,7.40
2023-05-22T02:43:22.986Z,6.83
2023-05-22T02:45:56.253Z,7.43
2023-05-22T02:48:30.186Z,7.30
2023-05-22T02:51:03.528Z,7.70
2023-05-22T02:53:40.140Z,7.27
2023-05-22T02:56:15.732Z,6.93
2023-05-22T02:58:49.137Z,7.77
2023-05-22T03:01:22.744Z,7.60
2023-05-22T03:03:56.212Z,7.53
2023-05-22T03:06:30.497Z,6.67
2023-05-22T03:09:04.537Z,7.23
2023-05-22T03:11:38.235Z,7.57
2023-05-22T03:14:11.729Z,7.00
2023-05-22T03:16:45.125Z,7.13
2023-05-22T03:19:19.762Z,7.60
2023-05-22T03:21:53.071Z,7.90
2023-05-22T03:24:27.023Z,7.67
2023-05-22T03:27:02.161Z,7.17
2023-05-22T03:29:36.330Z,6.90
2023-05-22T03:32:11.029Z,7.47
2023-05-22T03:34:44.480Z,7.40
2023-05-22T03:37:17.688Z,6.80
2023-05-22T03:39:50.952Z,6.63
2023-05-22T03:42:24.258Z,6.53
2023-05-22T03:44:57.638Z,6.83
2023-05-22T03:47:31.077Z,7.23
2023-05-22T03:50:04.806Z,7.07
2023-05-22T03:52:37.826Z,7.20
2023-05-22T03:55:14.005Z,7.43
2023-05-22T03:57:47.300Z,7.40
2023-05-22T04:00:22.662Z,7.10
2023-05-22T04:02:58.715Z,7.40
2023-05-22T04:05:33.333Z,6.70
2023-05-22T04:08:07.029Z,6.67
2023-05-22T04:10:40.610Z,6.73
2023-05-22T04:13:14.310Z,6.97
2023-05-22T04:15:47.765Z,7.13
2023-05-22T04:18:21.462Z,6.97
2023-05-22T04:20:55.055Z,6.93
2023-05-22T04:23:28.863Z,7.37
2023-05-22T04:26:02.554Z,7.10
2023-05-22T04:28:36.043Z,7.20
2023-05-22T04:31:09.402Z,7.27
2023-05-22T04:33:48.168Z,6.70
2023-05-22T04:36:26.124Z,6.77
2023-05-22T04:39:00.492Z,6.47
2023-05-22T04:41:34.261Z,6.43
2023-05-22T04:44:07.549Z,7.37
2023-05-22T04:46:41.049Z,7.73
2023-05-22T04:49:14.711Z,7.23
2023-05-22T04:51:47.998Z,6.57
2023-05-22T04:54:21.192Z,7.10
2023-05-22T04:56:54.513Z,6.50
2023-05-22T04:59:27.856Z,6.93
2023-05-22T05:02:01.381Z,6.93
2023-05-22T05:04:35.049Z,6.90
2023-05-22T05:07:08.926Z,6.83
2023-05-22T05:09:42.125Z,7.40
2023-05-22T05:12:15.415Z,7.70
2023-05-22T05:14:48.809Z,6.97
2023-05-22T05:17:22.654Z,6.70
2023-05-22T05:19:56.219Z,7.03
2023-05-22T05:22:29.498Z,6.73
2023-05-22T05:25:04.037Z,6.70
2023-05-22T05:27:37.738Z,7.50
2023-05-22T05:30:14.095Z,6.70
2023-05-22T05:32:48.018Z,7.13
2023-05-22T05:35:21.622Z,7.40
2023-05-22T05:37:54.994Z,6.47
2023-05-22T05:40:28.185Z,6.63
2023-05-22T05:43:01.494Z,7.07
2023-05-22T05:45:34.773Z,7.20
2023-05-22T05:48:08.463Z,7.27
2023-05-22T05:50:41.975Z,7.03
2023-05-22T05:53:16.646Z,6.90
2023-05-22T05:55:50.427Z,6.90
2023-05-22T05:58:23.689Z,7.03
2023-05-22T06:00:57.268Z,6.30
2023-05-22T06:03:31.273Z,6.40
2023-05-22T06:06:05.217Z,6.57
2023-05-22T06:08:39.162Z,6.20
2023-05-22T06:11:12.383Z,6.67
2023-05-22T06:13:45.733Z,6.27
2023-05-22T06:16:19.089Z,6.13
2023-05-22T06:18:53.190Z,6.70
2023-05-22T06:21:26.566Z,6.40
2023-05-22T06:23:59.927Z,6.70
2023-05-22T06:26:33.100Z,6.40
2023-05-22T06:29:06.428Z,6.43
2023-05-22T06:31:39.787Z,6.30
2023-05-22T06:34:13.636Z,6.80
2023-05-22T06:36:47.046Z,6.37
2023-05-22T06:39:20.656Z,6.60
2023-05-22T06:41:54.391Z,6.40
2023-05-22T06:44:27.657Z,6.03
2023-05-22T06:47:01.038Z,6.33
2023-05-22T06:49:34.429Z,6.30
2023-05-22T06:52:08.825Z,6.17
2023-05-22T06:54:43.031Z,6.33
2023-05-22T06:57:16.818Z,5.90
2023-05-22T06:59:50.100Z,5.83
2023-05-22T07:02:23.436Z,6.57
2023-05-22T07:04:57.094Z,5.70
2023-05-22T07:07:30.529Z,6.17
2023-05-22T07:10:04.773Z,6.10
2023-05-22T07:12:37.791Z,6.53
2023-05-22T07:15:14.560Z,6.53
2023-05-22T07:17:49.264Z,6.03
2023-05-22T07:20:23.010Z,5.90
2023-05-22T07:22:56.334Z,6.20
2023-05-22T07:25:30.014Z,6.57
2023-05-22T07:28:08.579Z,6.07
2023-05-22T07:30:43.353Z,5.57
2023-05-22T07:33:16.816Z,6.17
2023-05-22T07:35:51.813Z,6.40
2023-05-22T07:38:25.088Z,7.70
2023-05-22T07:40:58.377Z,6.47
2023-05-22T07:43:31.582Z,5.83
2023-05-22T07:46:06.140Z,6.50
2023-05-22T07:48:39.850Z,6.60
2023-05-22T07:51:14.711Z,6.20
2023-05-22T07:53:48.165Z,6.47
2023-05-22T07:56:22.106Z,6.93
2023-05-22T07:58:55.519Z,7.13
2023-05-22T08:01:29.111Z,10.93
2023-05-22T08:04:02.975Z,7.30
2023-05-22T08:06:37.118Z,6.73
2023-05-22T08:09:10.723Z,7.07
2023-05-22T08:11:45.349Z,7.00
2023-05-22T08:14:18.447Z,6.77
2023-05-22T08:16:51.862Z,6.63
2023-05-22T08:19:25.644Z,6.10
2023-05-22T08:21:59.136Z,6.27
2023-05-22T08:24:32.396Z,7.20
2023-05-22T08:27:05.892Z,6.33
2023-05-22T08:29:39.212Z,6.37
2023-05-22T08:32:13.576Z,7.73
2023-05-22T08:34:47.844Z,7.10
2023-05-22T08:37:22.342Z,6.83
2023-05-22T08:39:55.588Z,31.40
2023-05-22T08:42:29.350Z,31.23
2023-05-22T08:45:02.338Z,12.27
2023-05-22T08:47:38.272Z,10.83
2023-05-22T08:50:14.423Z,6.90
2023-05-22T08:53:01.653Z,7.77
2023-05-22T08:55:37.005Z,10.27
2023-05-22T08:58:12.277Z,7.43
2023-05-22T09:00:46.129Z,8.33
2023-05-22T09:03:21.486Z,7.43
2023-05-22T09:05:55.285Z,6.77
2023-05-22T09:08:28.660Z,10.07
2023-05-22T09:11:02.240Z,11.63
2023-05-22T09:13:36.254Z,7.80
2023-05-22T09:16:14.378Z,7.93
2023-05-22T09:18:48.769Z,6.70
2023-05-22T09:24:04.815Z,7.20
2023-05-22T09:26:39.168Z,7.13
2023-05-22T09:29:12.829Z,6.60
2023-05-22T09:31:48.052Z,6.33
2023-05-22T09:34:22.558Z,7.00
2023-05-22T09:37:02.461Z,6.80
2023-05-22T09:39:44.742Z,5.70
2023-05-22T09:42:20.172Z,6.20
2023-05-22T09:44:55.006Z,6.40
2023-05-22T09:47:28.357Z,5.67
2023-05-22T09:50:06.458Z,7.13
2023-05-22T09:52:42.496Z,7.13
2023-05-22T09:55:22.768Z,6.78
2023-05-22T09:57:57.865Z,6.60
2023-05-22T10:00:34.198Z,7.47
2023-05-22T10:03:15.283Z,6.20
2023-05-22T10:05:55.211Z,6.50
2023-05-22T10:08:34.469Z,6.75
2023-05-22T10:11:09.026Z,6.03
2023-05-22T10:13:45.066Z,6.43
2023-05-22T10:16:20.258Z,6.15
2023-05-22T10:18:55.211Z,6.63
2023-05-22T10:21:31.615Z,7.05
2023-05-22T10:24:07.621Z,6.10
2023-05-22T10:26:43.453Z,6.60
2023-05-22T10:29:24.507Z,6.95
2023-05-22T10:32:07.654Z,6.50
2023-05-22T10:34:55.437Z,6.32
2023-05-22T10:37:48.567Z,6.75
2023-05-22T10:40:30.258Z,6.07
2023-05-22T10:43:05.150Z,9.98
2023-05-22T10:45:38.478Z,8.27
2023-05-22T10:48:13.927Z,8.10
2023-05-22T10:50:59.273Z,6.50
2023-05-22T10:53:37.732Z,6.13
2023-05-22T10:56:19.178Z,7.68
2023-05-22T10:59:07.281Z,7.43
2023-05-22T11:01:40.854Z,7.05
2023-05-22T11:04:19.113Z,14.32
2023-05-22T11:07:06.749Z,9.30
2023-05-22T11:09:47.617Z,9.80
2023-05-22T11:12:25.761Z,8.63
2023-05-22T11:15:01.408Z,8.50
2023-05-22T11:17:41.359Z,7.70
2023-05-22T11:20:24.346Z,7.45
2023-05-22T11:23:06.871Z,6.82
2023-05-22T11:25:42.002Z,7.75
2023-05-22T11:28:16.051Z,8.93
2023-05-22T11:30:50.472Z,10.57
2023-05-22T11:33:24.988Z,10.10
2023-05-22T11:35:59.837Z,8.38
2023-05-22T11:38:33.990Z,7.63
2023-05-22T11:41:07.259Z,7.90
2023-05-22T11:43:43.361Z,9.80
2023-05-22T11:46:17.498Z,7.93
2023-05-22T11:48:53.052Z,8.05
2023-05-22T11:51:28.012Z,8.93
2023-05-22T11:54:02.547Z,7.85
2023-05-22T11:56:35.897Z,7.10
2023-05-22T11:59:09.256Z,7.20
2023-05-22T12:01:42.563Z,9.23
2023-05-22T12:04:15.983Z,7.72
2023-05-22T12:06:49.800Z,9.35
2023-05-22T12:09:23.173Z,8.65
2023-05-22T12:11:57.870Z,6.95
2023-05-22T12:14:33.930Z,7.07
2023-05-22T12:17:07.751Z,7.72
2023-05-22T12:19:47.118Z,7.18
2023-05-22T12:22:23.305Z,18.00
2023-05-22T12:24:57.232Z,28.83
2023-05-22T12:27:36.542Z,19.05
2023-05-22T12:30:19.866Z,17.05
2023-05-22T12:32:59.962Z,8.70
2023-05-22T12:35:34.169Z,8.68
2023-05-22T12:38:08.598Z,7.65
2023-05-22T12:40:41.694Z,7.53
2023-05-22T12:43:15.363Z,7.72
2023-05-22T12:45:48.784Z,7.20
2023-05-22T12:48:22.862Z,7.30
2023-05-22T12:50:56.448Z,7.60
2023-05-22T12:53:29.791Z,6.82
2023-05-22T12:56:04.097Z,6.40
2023-05-22T12:58:37.398Z,6.68
2023-05-22T13:01:10.861Z,6.13
2023-05-22T13:03:44.677Z,7.43
2023-05-22T13:06:18.200Z,6.82
2023-05-22T13:08:51.768Z,7.95
2023-05-22T13:11:26.539Z,6.65
2023-05-22T13:14:00.099Z,6.85
2023-05-22T13:16:36.552Z,9.20
2023-05-22T13:19:10.371Z,6.47
2023-05-22T13:21:44.147Z,6.85
2023-05-22T13:24:18.285Z,6.47
2023-05-22T13:26:51.445Z,6.15
2023-05-22T13:29:24.805Z,6.57
2023-05-22T13:31:58.337Z,6.80
2023-05-22T13:34:32.361Z,7.03
2023-05-22T13:37:07.479Z,6.35
2023-05-22T13:39:41.088Z,6.85
2023-05-22T13:42:14.094Z,6.53
2023-05-22T13:44:47.400Z,6.25
2023-05-22T13:47:22.089Z,6.82
2023-05-22T13:49:55.778Z,6.38
2023-05-22T13:52:30.630Z,6.43
2023-05-22T13:55:05.065Z,6.43
2023-05-22T13:57:40.409Z,6.80
2023-05-22T14:00:17.929Z,7.03
2023-05-22T14:02:51.891Z,6.78
2023-05-22T14:05:26.348Z,6.63
2023-05-22T14:07:59.668Z,7.15
2023-05-22T14:10:34.333Z,6.70
2023-05-22T14:13:08.601Z,7.00
2023-05-22T14:15:42.417Z,7.10
2023-05-22T14:18:16.618Z,7.63
2023-05-22T14:20:50.804Z,6.97
2023-05-22T14:23:24.097Z,7.57
2023-05-22T14:25:57.404Z,8.02
2023-05-22T14:28:31.696Z,7.88
2023-05-22T14:31:05.347Z,7.72
2023-05-22T14:33:39.146Z,8.05
2023-05-22T14:36:12.674Z,7.70
2023-05-22T14:38:46.768Z,7.80
2023-05-22T14:41:21.296Z,7.32
2023-05-22T14:43:54.306Z,6.93
2023-05-22T14:46:27.741Z,7.47
2023-05-22T14:49:01.379Z,9.23
2023-05-22T14:51:34.765Z,7.03
2023-05-22T14:54:08.768Z,7.53
2023-05-22T14:56:42.064Z,7.30
2023-05-22T14:59:15.206Z,8.40
2023-05-22T15:01:50.403Z,7.30
2023-05-22T15:04:24.817Z,7.47
2023-05-22T15:06:58.596Z,7.35
2023-05-22T15:09:32.431Z,7.30
2023-05-22T15:12:05.830Z,7.57
2023-05-22T15:14:38.842Z,8.63
2023-05-22T15:17:12.145Z,7.72
2023-05-22T15:19:45.601Z,7.20
2023-05-22T15:22:20.123Z,6.93
2023-05-22T15:25:06.505Z,8.15
2023-05-22T15:27:42.912Z,7.38
2023-05-22T15:30:17.221Z,9.35
2023-05-22T15:32:51.004Z,11.57
2023-05-22T15:35:24.637Z,11.27
2023-05-22T15:37:58.211Z,7.68
2023-05-22T15:40:31.717Z,7.68
2023-05-22T15:43:06.860Z,8.43
2023-05-22T15:45:41.339Z,8.15
2023-05-22T15:48:15.229Z,9.85
2023-05-22T15:50:48.855Z,8.18
2023-05-22T15:53:22.768Z,11.30
2023-05-22T15:55:56.550Z,7.28
2023-05-22T15:58:30.237Z,6.82
2023-05-22T16:01:04.121Z,8.93
2023-05-22T16:03:37.875Z,8.00
2023-05-22T16:06:11.513Z,6.95
2023-05-22T16:08:44.824Z,8.23
2023-05-22T16:11:18.325Z,11.45
2023-05-22T16:13:53.149Z,12.05
2023-05-22T16:16:26.571Z,15.00
2023-05-22T16:19:00.333Z,7.38
2023-05-22T16:21:33.912Z,7.10
2023-05-22T16:24:07.332Z,6.40
2023-05-22T16:26:40.763Z,7.43
2023-05-22T16:29:14.392Z,6.63
2023-05-22T16:31:48.580Z,6.88
2023-05-22T16:34:21.858Z,6.70
2023-05-22T16:36:55.181Z,6.85
2023-05-22T16:39:29.041Z,6.75
2023-05-22T16:42:03.894Z,6.85
2023-05-22T16:44:42.824Z,8.35
2023-05-22T16:47:21.078Z,7.80
2023-05-22T16:50:03.187Z,6.78
2023-05-22T16:52:40.163Z,6.63
2023-05-22T16:55:15.650Z,9.32
2023-05-22T16:57:48.870Z,9.50
2023-05-22T17:00:23.598Z,7.15
2023-05-22T17:02:57.644Z,7.20
2023-05-22T17:05:31.532Z,6.85
2023-05-22T17:08:05.273Z,10.00
2023-05-22T17:10:38.710Z,11.02
2023-05-22T17:13:19.558Z,7.80
2023-05-22T17:15:54.540Z,8.40
2023-05-22T17:18:27.669Z,8.68
2023-05-22T17:21:01.281Z,8.85
2023-05-22T17:23:36.975Z,10.30
2023-05-22T17:26:10.314Z,10.75
2023-05-22T17:28:43.607Z,10.40
2023-05-22T17:31:17.340Z,10.52
2023-05-22T17:33:50.700Z,10.55
2023-05-22T17:36:24.406Z,10.45
2023-05-22T17:38:57.646Z,10.53
2023-05-22T17:41:31.001Z,10.48
2023-05-22T17:44:04.258Z,9.67
2023-05-22T17:46:39.037Z,10.30
2023-05-22T17:49:12.896Z,9.83
2023-05-22T17:51:46.445Z,9.47
2023-05-22T17:54:21.407Z,9.00
2023-05-22T17:56:55.177Z,9.60
2023-05-22T17:59:28.452Z,9.88
2023-05-22T18:02:02.194Z,9.50
2023-05-22T18:04:35.598Z,10.07
2023-05-22T18:07:09.007Z,10.17
2023-05-22T18:09:42.530Z,9.67
2023-05-22T18:12:31.075Z,9.37
2023-05-22T18:15:05.482Z,9.18
2023-05-22T18:17:39.245Z,8.77
2023-05-22T18:20:16.667Z,8.90
2023-05-22T18:22:50.276Z,7.60
2023-05-22T18:25:23.724Z,7.60
2023-05-22T18:27:57.170Z,7.20
2023-05-22T18:30:30.477Z,7.23
2023-05-22T18:33:04.310Z,7.50
2023-05-22T18:35:37.324Z,7.30
2023-05-22T18:38:10.708Z,7.80
2023-05-22T18:40:44.674Z,7.17
2023-05-22T18:43:18.126Z,7.53
2023-05-22T18:45:51.669Z,7.27
2023-05-22T18:48:27.187Z,7.63
2023-05-22T18:51:00.736Z,7.43
2023-05-22T18:53:34.436Z,8.00
2023-05-22T18:56:08.204Z,8.47
2023-05-22T18:58:41.720Z,8.83
2023-05-22T19:01:16.621Z,9.13
2023-05-22T19:03:50.279Z,8.73
2023-05-22T19:06:23.549Z,9.50
2023-05-22T19:08:56.898Z,8.50
2023-05-22T19:11:30.477Z,8.23
2023-05-22T19:14:04.237Z,8.00
2023-05-22T19:16:37.710Z,7.43
2023-05-22T19:19:11.662Z,7.97
2023-05-22T19:21:45.005Z,7.60
2023-05-22T19:24:18.333Z,7.83
2023-05-22T19:26:51.861Z,7.67
2023-05-22T19:29:25.344Z,8.20
2023-05-22T19:31:58.666Z,8.10
2023-05-22T19:34:31.964Z,8.13
2023-05-22T19:37:04.984Z,7.97
2023-05-22T19:39:38.818Z,8.13
2023-05-22T19:42:13.189Z,8.33
2023-05-22T19:44:47.110Z,8.73
2023-05-22T19:47:20.696Z,7.47
2023-05-22T19:49:54.306Z,7.83
2023-05-22T19:52:27.455Z,7.67
2023-05-22T19:55:00.850Z,7.97
2023-05-22T19:57:34.234Z,7.37
2023-05-22T20:00:10.974Z,7.93
2023-05-22T20:02:44.723Z,8.47
2023-05-22T20:05:18.314Z,8.23
2023-05-22T20:07:51.611Z,8.13
2023-05-22T20:10:25.815Z,8.80
2023-05-22T20:12:59.377Z,8.13
2023-05-22T20:15:33.068Z,8.53
2023-05-22T20:18:06.863Z,8.63
2023-05-22T20:20:40.429Z,8.73
2023-05-22T20:23:13.448Z,8.50
2023-05-22T20:25:46.778Z,8.50
2023-05-22T20:28:20.112Z,8.20
2023-05-22T20:30:54.714Z,8.13
2023-05-22T20:33:28.327Z,8.50
2023-05-22T20:36:02.433Z,8.53
2023-05-22T20:38:35.544Z,8.33
2023-05-22T20:41:09.874Z,8.00
2023-05-22T20:43:43.874Z,8.13
2023-05-22T20:46:17.604Z,8.17
2023-05-22T20:48:51.389Z,8.77
2023-05-22T20:51:33.526Z,8.57
2023-05-22T20:54:06.632Z,9.20
2023-05-22T20:56:40.115Z,8.83
2023-05-22T20:59:13.649Z,8.73
2023-05-22T21:01:48.443Z,8.73
2023-05-22T21:04:21.759Z,8.53
2023-05-22T21:06:55.365Z,8.40
2023-05-22T21:09:28.360Z,8.63
2023-05-22T21:12:01.756Z,8.40
2023-05-22T21:14:35.100Z,9.10
2023-05-22T21:17:08.946Z,8.50
2023-05-22T21:19:42.460Z,9.13
2023-05-22T21:22:15.755Z,9.23
2023-05-22T21:24:49.012Z,8.73
2023-05-22T21:27:22.381Z,9.47
2023-05-22T21:29:55.626Z,9.07
2023-05-22T21:32:28.922Z,9.13
2023-05-22T21:35:02.498Z,10.00
2023-05-22T21:37:35.904Z,9.07
2023-05-22T21:40:11.304Z,10.10
2023-05-22T21:42:46.559Z,9.50
2023-05-22T21:45:21.503Z,9.70
2023-05-22T21:47:55.116Z,9.77
2023-05-22T21:50:28.691Z,9.63
2023-05-22T21:53:02.458Z,9.97
2023-05-22T21:55:36.907Z,10.07
2023-05-22T21:58:10.455Z,9.93
2023-05-22T22:00:43.899Z,9.93
2023-05-22T22:03:17.420Z,10.20
2023-05-22T22:05:50.955Z,9.97
2023-05-22T22:08:24.231Z,9.97
2023-05-22T22:10:58.303Z,10.37
2023-05-22T22:13:32.554Z,10.53
2023-05-22T22:16:06.101Z,10.10
2023-05-22T22:18:40.881Z,10.53
2023-05-22T22:21:14.408Z,10.47
2023-05-22T22:23:47.694Z,10.13
2023-05-22T22:26:20.658Z,9.80
2023-05-22T22:28:54.759Z,10.53
2023-05-22T22:31:28.401Z,11.30
2023-05-22T22:34:01.866Z,11.63
2023-05-22T22:36:35.496Z,10.73
2023-05-22T22:39:09.072Z,11.43
2023-05-22T22:41:43.448Z,11.30
2023-05-22T22:44:17.161Z,11.07
2023-05-22T22:46:50.511Z,10.77
2023-05-22T22:49:23.914Z,11.50
2023-05-22T22:51:57.502Z,11.50
2023-05-22T22:54:31.087Z,11.37
2023-05-22T22:57:04.376Z,12.03
2023-05-22T22:59:38.567Z,12.40
2023-05-22T23:02:12.205Z,12.03
2023-05-22T23:04:45.708Z,11.77
2023-05-22T23:07:19.256Z,13.47
2023-05-22T23:09:52.524Z,13.87
2023-05-22T23:12:25.875Z,13.70
2023-05-22T23:14:59.422Z,13.27
2023-05-22T23:17:32.881Z,13.80
2023-05-22T23:20:06.992Z,13.20
2023-05-22T23:22:40.285Z,12.83
2023-05-22T23:25:15.665Z,14.03
2023-05-22T23:27:48.651Z,12.20
2023-05-22T23:30:22.015Z,13.07
2023-05-22T23:32:55.440Z,12.53
2023-05-22T23:35:29.656Z,12.33
2023-05-22T23:38:02.930Z,13.10
2023-05-22T23:40:36.275Z,13.30
2023-05-22T23:43:09.281Z,13.40
2023-05-22T23:45:42.851Z,13.43
2023-05-22T23:48:17.172Z,13.17
2023-05-22T23:50:50.515Z,12.93
2023-05-22T23:53:23.789Z,13.70
2023-05-22T23:55:57.090Z,14.20
2023-05-22T23:58:30.465Z,14.67
